Terminal Aerodrome Forecast
Issued by NWS Mt. Holly, NJ

Home | Current Version | Previous Version | Text Only | Print | Product List | Glossary On
Versions: 1 2 3 4 5 6 7 8 9 10 11 12 13 14
514
FTUS41 KPHI 251123
TAFILG
TAF
KILG 251123Z 2512/2612 09009KT 5SM -RA BR OVC004
      TEMPO 2512/2514 2SM BR
     FM251400 08007KT 2SM BR VCSH OVC006
     FM251700 05005KT P6SM VCSH OVC005
     FM252100 03004KT P6SM OVC010 PROB30 2521/2524 5SM -SHRA BR
     FM260000 02004KT P6SM OVC011 PROB30 2600/2603 2SM -SHRA
     FM260500 31008KT P6SM BKN008
     FM260800 30008KT P6SM SCT016=

USA.gov is the U.S. government's official web portal to all federal, state and local government web resources and services.